sensor_id;sensor_type;location;lat;lon;timestamp;P1;durP1;ratioP1;P2;durP2;ratioP2
29712;SDS011;16623;53.632;10.016;2023-08-07T00:00:08;4.45;;;2.63;;
29712;SDS011;16623;53.632;10.016;2023-08-07T00:02:34;3.72;;;2.47;;
29712;SDS011;16623;53.632;10.016;2023-08-07T00:05:00;4.93;;;2.53;;
29712;SDS011;16623;53.632;10.016;2023-08-07T00:07:25;4.30;;;2.30;;
29712;SDS011;16623;53.632;10.016;2023-08-07T00:09:51;10.18;;;2.50;;
29712;SDS011;16623;53.632;10.016;2023-08-07T00:12:16;7.07;;;2.53;;
29712;SDS011;16623;53.632;10.016;2023-08-07T00:14:42;5.63;;;2.17;;
29712;SDS011;16623;53.632;10.016;2023-08-07T00:17:07;5.95;;;2.28;;
29712;SDS011;16623;53.632;10.016;2023-08-07T00:19:33;3.17;;;2.08;;
29712;SDS011;16623;53.632;10.016;2023-08-07T00:21:59;5.20;;;1.92;;
29712;SDS011;16623;53.632;10.016;2023-08-07T00:24:24;2.45;;;1.90;;
29712;SDS011;16623;53.632;10.016;2023-08-07T00:26:50;7.82;;;1.90;;
29712;SDS011;16623;53.632;10.016;2023-08-07T00:29:15;3.03;;;2.13;;
29712;SDS011;16623;53.632;10.016;2023-08-07T00:31:41;6.00;;;2.25;;
29712;SDS011;16623;53.632;10.016;2023-08-07T00:34:06;7.70;;;2.35;;
29712;SDS011;16623;53.632;10.016;2023-08-07T00:36:32;5.70;;;1.83;;
29712;SDS011;16623;53.632;10.016;2023-08-07T00:39:00;7.38;;;2.30;;
29712;SDS011;16623;53.632;10.016;2023-08-07T00:41:26;6.13;;;2.40;;
29712;SDS011;16623;53.632;10.016;2023-08-07T00:43:51;3.78;;;2.58;;
29712;SDS011;16623;53.632;10.016;2023-08-07T00:46:17;8.57;;;2.10;;
29712;SDS011;16623;53.632;10.016;2023-08-07T00:48:43;3.70;;;1.80;;
29712;SDS011;16623;53.632;10.016;2023-08-07T00:51:09;4.55;;;2.17;;
29712;SDS011;16623;53.632;10.016;2023-08-07T00:53:37;4.20;;;1.70;;
29712;SDS011;16623;53.632;10.016;2023-08-07T00:56:03;11.85;;;2.20;;
29712;SDS011;16623;53.632;10.016;2023-08-07T00:58:29;2.83;;;1.92;;
29712;SDS011;16623;53.632;10.016;2023-08-07T01:00:55;3.08;;;1.70;;
29712;SDS011;16623;53.632;10.016;2023-08-07T01:03:20;4.00;;;1.90;;
29712;SDS011;16623;53.632;10.016;2023-08-07T01:05:46;4.55;;;2.15;;
29712;SDS011;16623;53.632;10.016;2023-08-07T01:08:11;4.38;;;2.00;;
29712;SDS011;16623;53.632;10.016;2023-08-07T01:10:47;3.85;;;2.08;;
29712;SDS011;16623;53.632;10.016;2023-08-07T01:13:45;2.67;;;1.80;;
29712;SDS011;16623;53.632;10.016;2023-08-07T01:16:35;6.00;;;2.03;;
29712;SDS011;16623;53.632;10.016;2023-08-07T01:19:09;4.93;;;2.50;;
29712;SDS011;16623;53.632;10.016;2023-08-07T01:21:45;6.45;;;2.03;;
29712;SDS011;16623;53.632;10.016;2023-08-07T01:24:13;3.35;;;1.52;;
29712;SDS011;16623;53.632;10.016;2023-08-07T01:26:39;3.10;;;1.90;;
29712;SDS011;16623;53.632;10.016;2023-08-07T01:29:15;3.00;;;2.03;;
29712;SDS011;16623;53.632;10.016;2023-08-07T01:31:50;4.90;;;2.20;;
29712;SDS011;16623;53.632;10.016;2023-08-07T01:34:19;3.03;;;1.60;;
29712;SDS011;16623;53.632;10.016;2023-08-07T01:36:48;5.65;;;2.28;;
29712;SDS011;16623;53.632;10.016;2023-08-07T01:39:16;8.05;;;2.00;;
29712;SDS011;16623;53.632;10.016;2023-08-07T01:41:43;3.25;;;1.80;;
29712;SDS011;16623;53.632;10.016;2023-08-07T01:44:10;5.97;;;2.00;;
29712;SDS011;16623;53.632;10.016;2023-08-07T01:46:35;3.33;;;2.10;;
29712;SDS011;16623;53.632;10.016;2023-08-07T01:49:01;7.45;;;1.80;;
29712;SDS011;16623;53.632;10.016;2023-08-07T01:51:30;4.32;;;1.70;;
29712;SDS011;16623;53.632;10.016;2023-08-07T01:53:55;8.27;;;2.13;;
29712;SDS011;16623;53.632;10.016;2023-08-07T01:56:21;4.10;;;1.80;;
29712;SDS011;16623;53.632;10.016;2023-08-07T01:58:47;8.70;;;1.88;;
29712;SDS011;16623;53.632;10.016;2023-08-07T02:01:12;3.58;;;2.45;;
29712;SDS011;16623;53.632;10.016;2023-08-07T02:03:38;4.15;;;1.90;;
29712;SDS011;16623;53.632;10.016;2023-08-07T02:06:03;3.78;;;1.58;;
29712;SDS011;16623;53.632;10.016;2023-08-07T02:08:29;7.65;;;2.42;;
29712;SDS011;16623;53.632;10.016;2023-08-07T02:10:54;11.48;;;2.00;;
29712;SDS011;16623;53.632;10.016;2023-08-07T02:13:20;7.78;;;2.13;;
29712;SDS011;16623;53.632;10.016;2023-08-07T02:15:45;6.43;;;1.83;;
29712;SDS011;16623;53.632;10.016;2023-08-07T02:18:11;9.35;;;1.92;;
29712;SDS011;16623;53.632;10.016;2023-08-07T02:20:36;8.48;;;2.25;;
29712;SDS011;16623;53.632;10.016;2023-08-07T02:23:02;5.85;;;2.40;;
29712;SDS011;16623;53.632;10.016;2023-08-07T02:25:27;4.63;;;1.90;;
29712;SDS011;16623;53.632;10.016;2023-08-07T02:27:53;5.70;;;2.15;;
29712;SDS011;16623;53.632;10.016;2023-08-07T02:30:18;3.75;;;1.80;;
29712;SDS011;16623;53.632;10.016;2023-08-07T02:32:43;4.47;;;1.90;;
29712;SDS011;16623;53.632;10.016;2023-08-07T02:35:09;10.07;;;1.77;;
29712;SDS011;16623;53.632;10.016;2023-08-07T02:37:36;4.72;;;2.00;;
29712;SDS011;16623;53.632;10.016;2023-08-07T02:40:01;11.30;;;2.10;;
29712;SDS011;16623;53.632;10.016;2023-08-07T02:42:27;6.03;;;2.03;;
29712;SDS011;16623;53.632;10.016;2023-08-07T02:44:53;4.80;;;2.13;;
29712;SDS011;16623;53.632;10.016;2023-08-07T02:47:18;5.43;;;2.00;;
29712;SDS011;16623;53.632;10.016;2023-08-07T02:49:44;5.13;;;1.92;;
29712;SDS011;16623;53.632;10.016;2023-08-07T02:52:09;2.72;;;1.70;;
29712;SDS011;16623;53.632;10.016;2023-08-07T02:54:35;4.88;;;1.75;;
29712;SDS011;16623;53.632;10.016;2023-08-07T02:57:00;5.40;;;1.88;;
29712;SDS011;16623;53.632;10.016;2023-08-07T02:59:25;3.22;;;1.70;;
29712;SDS011;16623;53.632;10.016;2023-08-07T03:01:51;6.07;;;2.00;;
29712;SDS011;16623;53.632;10.016;2023-08-07T03:04:17;2.75;;;1.67;;
29712;SDS011;16623;53.632;10.016;2023-08-07T03:06:42;2.38;;;1.60;;
29712;SDS011;16623;53.632;10.016;2023-08-07T03:09:08;3.95;;;2.30;;
29712;SDS011;16623;53.632;10.016;2023-08-07T03:11:33;4.88;;;2.25;;
29712;SDS011;16623;53.632;10.016;2023-08-07T03:13:59;3.65;;;1.80;;
29712;SDS011;16623;53.632;10.016;2023-08-07T03:16:24;4.88;;;1.98;;
29712;SDS011;16623;53.632;10.016;2023-08-07T03:18:49;4.95;;;2.03;;
29712;SDS011;16623;53.632;10.016;2023-08-07T03:21:15;6.60;;;1.80;;
29712;SDS011;16623;53.632;10.016;2023-08-07T03:23:41;4.88;;;1.70;;
29712;SDS011;16623;53.632;10.016;2023-08-07T03:26:10;5.32;;;1.98;;
29712;SDS011;16623;53.632;10.016;2023-08-07T03:28:37;3.72;;;1.88;;
29712;SDS011;16623;53.632;10.016;2023-08-07T03:31:02;3.28;;;1.75;;
29712;SDS011;16623;53.632;10.016;2023-08-07T03:33:28;2.33;;;1.42;;
29712;SDS011;16623;53.632;10.016;2023-08-07T03:35:54;4.20;;;1.98;;
29712;SDS011;16623;53.632;10.016;2023-08-07T03:38:19;3.25;;;1.60;;
29712;SDS011;16623;53.632;10.016;2023-08-07T03:40:45;8.10;;;2.13;;
29712;SDS011;16623;53.632;10.016;2023-08-07T03:43:11;5.00;;;1.80;;
29712;SDS011;16623;53.632;10.016;2023-08-07T03:45:37;3.10;;;1.63;;
29712;SDS011;16623;53.632;10.016;2023-08-07T03:48:03;2.58;;;1.80;;
29712;SDS011;16623;53.632;10.016;2023-08-07T03:50:28;6.85;;;1.90;;
29712;SDS011;16623;53.632;10.016;2023-08-07T03:52:55;3.25;;;2.30;;
29712;SDS011;16623;53.632;10.016;2023-08-07T03:55:21;2.80;;;1.73;;
29712;SDS011;16623;53.632;10.016;2023-08-07T03:57:47;5.75;;;2.10;;
29712;SDS011;16623;53.632;10.016;2023-08-07T04:00:12;3.50;;;1.70;;
29712;SDS011;16623;53.632;10.016;2023-08-07T04:02:38;3.97;;;2.00;;
29712;SDS011;16623;53.632;10.016;2023-08-07T04:05:04;3.42;;;1.90;;
29712;SDS011;16623;53.632;10.016;2023-08-07T04:07:29;3.75;;;1.77;;
29712;SDS011;16623;53.632;10.016;2023-08-07T04:09:55;11.23;;;1.92;;
29712;SDS011;16623;53.632;10.016;2023-08-07T04:12:20;6.00;;;2.13;;
29712;SDS011;16623;53.632;10.016;2023-08-07T04:14:45;5.88;;;2.53;;
29712;SDS011;16623;53.632;10.016;2023-08-07T04:17:11;8.63;;;2.80;;
29712;SDS011;16623;53.632;10.016;2023-08-07T04:19:37;6.95;;;2.35;;
29712;SDS011;16623;53.632;10.016;2023-08-07T04:22:02;10.13;;;2.60;;
29712;SDS011;16623;53.632;10.016;2023-08-07T04:24:28;12.27;;;2.47;;
29712;SDS011;16623;53.632;10.016;2023-08-07T04:26:53;4.57;;;2.00;;
29712;SDS011;16623;53.632;10.016;2023-08-07T04:29:19;7.93;;;2.13;;
29712;SDS011;16623;53.632;10.016;2023-08-07T04:31:44;4.40;;;2.03;;
29712;SDS011;16623;53.632;10.016;2023-08-07T04:34:10;7.45;;;2.15;;
29712;SDS011;16623;53.632;10.016;2023-08-07T04:36:35;7.07;;;2.10;;
29712;SDS011;16623;53.632;10.016;2023-08-07T04:39:01;6.22;;;1.80;;
29712;SDS011;16623;53.632;10.016;2023-08-07T04:41:26;7.05;;;2.60;;
29712;SDS011;16623;53.632;10.016;2023-08-07T04:43:52;3.97;;;2.13;;
29712;SDS011;16623;53.632;10.016;2023-08-07T04:46:18;7.75;;;2.45;;
29712;SDS011;16623;53.632;10.016;2023-08-07T04:48:43;6.70;;;2.17;;
29712;SDS011;16623;53.632;10.016;2023-08-07T04:51:09;11.43;;;2.83;;
29712;SDS011;16623;53.632;10.016;2023-08-07T04:53:34;5.93;;;2.15;;
29712;SDS011;16623;53.632;10.016;2023-08-07T04:56:00;8.43;;;2.25;;
29712;SDS011;16623;53.632;10.016;2023-08-07T04:58:25;10.60;;;3.08;;
29712;SDS011;16623;53.632;10.016;2023-08-07T05:00:54;8.38;;;2.42;;
29712;SDS011;16623;53.632;10.016;2023-08-07T05:03:20;10.77;;;2.53;;
29712;SDS011;16623;53.632;10.016;2023-08-07T05:05:46;11.15;;;2.30;;
29712;SDS011;16623;53.632;10.016;2023-08-07T05:08:11;9.73;;;2.17;;
29712;SDS011;16623;53.632;10.016;2023-08-07T05:10:37;10.52;;;2.20;;
29712;SDS011;16623;53.632;10.016;2023-08-07T05:13:02;12.77;;;2.65;;
29712;SDS011;16623;53.632;10.016;2023-08-07T05:15:28;12.35;;;2.47;;
29712;SDS011;16623;53.632;10.016;2023-08-07T05:17:55;9.25;;;2.70;;
29712;SDS011;16623;53.632;10.016;2023-08-07T05:20:21;12.95;;;2.65;;
29712;SDS011;16623;53.632;10.016;2023-08-07T05:22:46;5.45;;;2.50;;
29712;SDS011;16623;53.632;10.016;2023-08-07T05:25:12;8.20;;;2.40;;
29712;SDS011;16623;53.632;10.016;2023-08-07T05:27:41;7.55;;;2.45;;
29712;SDS011;16623;53.632;10.016;2023-08-07T05:30:07;15.13;;;3.17;;
29712;SDS011;16623;53.632;10.016;2023-08-07T05:32:33;7.32;;;2.53;;
29712;SDS011;16623;53.632;10.016;2023-08-07T05:35:02;11.05;;;2.67;;
29712;SDS011;16623;53.632;10.016;2023-08-07T05:37:32;12.48;;;2.55;;
29712;SDS011;16623;53.632;10.016;2023-08-07T05:39:58;7.28;;;2.30;;
29712;SDS011;16623;53.632;10.016;2023-08-07T05:42:24;4.25;;;2.72;;
29712;SDS011;16623;53.632;10.016;2023-08-07T05:44:49;7.88;;;2.45;;
29712;SDS011;16623;53.632;10.016;2023-08-07T05:47:15;5.72;;;2.33;;
29712;SDS011;16623;53.632;10.016;2023-08-07T05:49:40;12.48;;;2.88;;
29712;SDS011;16623;53.632;10.016;2023-08-07T05:52:06;8.13;;;2.47;;
29712;SDS011;16623;53.632;10.016;2023-08-07T05:54:32;10.95;;;2.55;;
29712;SDS011;16623;53.632;10.016;2023-08-07T05:56:58;11.20;;;2.22;;
29712;SDS011;16623;53.632;10.016;2023-08-07T05:59:23;5.50;;;1.92;;
29712;SDS011;16623;53.632;10.016;2023-08-07T06:01:49;8.32;;;2.78;;
29712;SDS011;16623;53.632;10.016;2023-08-07T06:04:14;10.27;;;2.40;;
29712;SDS011;16623;53.632;10.016;2023-08-07T06:06:40;8.68;;;2.33;;
29712;SDS011;16623;53.632;10.016;2023-08-07T06:09:07;6.90;;;2.03;;
29712;SDS011;16623;53.632;10.016;2023-08-07T06:11:33;8.90;;;2.30;;
29712;SDS011;16623;53.632;10.016;2023-08-07T06:13:58;10.68;;;2.63;;
29712;SDS011;16623;53.632;10.016;2023-08-07T06:16:24;8.18;;;2.20;;
29712;SDS011;16623;53.632;10.016;2023-08-07T06:18:49;13.32;;;2.42;;
29712;SDS011;16623;53.632;10.016;2023-08-07T06:21:15;14.60;;;2.83;;
29712;SDS011;16623;53.632;10.016;2023-08-07T06:23:41;6.07;;;2.47;;
29712;SDS011;16623;53.632;10.016;2023-08-07T06:26:07;13.52;;;3.47;;
29712;SDS011;16623;53.632;10.016;2023-08-07T06:28:33;14.95;;;2.97;;
29712;SDS011;16623;53.632;10.016;2023-08-07T06:31:01;13.48;;;3.35;;
29712;SDS011;16623;53.632;10.016;2023-08-07T06:33:28;10.77;;;2.83;;
29712;SDS011;16623;53.632;10.016;2023-08-07T06:35:53;9.93;;;2.88;;
29712;SDS011;16623;53.632;10.016;2023-08-07T06:38:19;18.40;;;3.20;;
29712;SDS011;16623;53.632;10.016;2023-08-07T06:40:45;10.50;;;2.63;;
29712;SDS011;16623;53.632;10.016;2023-08-07T06:43:10;17.65;;;3.03;;
29712;SDS011;16623;53.632;10.016;2023-08-07T06:45:36;10.38;;;2.85;;
29712;SDS011;16623;53.632;10.016;2023-08-07T06:48:01;12.43;;;3.42;;
29712;SDS011;16623;53.632;10.016;2023-08-07T06:50:27;18.67;;;3.60;;
29712;SDS011;16623;53.632;10.016;2023-08-07T06:52:52;20.35;;;4.03;;
29712;SDS011;16623;53.632;10.016;2023-08-07T06:55:19;14.30;;;3.08;;
29712;SDS011;16623;53.632;10.016;2023-08-07T06:57:44;10.32;;;3.92;;
29712;SDS011;16623;53.632;10.016;2023-08-07T07:00:10;14.13;;;4.55;;
29712;SDS011;16623;53.632;10.016;2023-08-07T07:02:36;19.05;;;4.60;;
29712;SDS011;16623;53.632;10.016;2023-08-07T07:05:02;15.23;;;3.92;;
29712;SDS011;16623;53.632;10.016;2023-08-07T07:07:29;13.85;;;3.00;;
29712;SDS011;16623;53.632;10.016;2023-08-07T07:09:55;11.02;;;3.28;;
29712;SDS011;16623;53.632;10.016;2023-08-07T07:12:22;12.73;;;3.17;;
29712;SDS011;16623;53.632;10.016;2023-08-07T07:14:48;21.08;;;3.47;;
29712;SDS011;16623;53.632;10.016;2023-08-07T07:17:14;15.68;;;3.60;;
29712;SDS011;16623;53.632;10.016;2023-08-07T07:19:39;16.45;;;3.80;;
29712;SDS011;16623;53.632;10.016;2023-08-07T07:22:05;15.73;;;3.50;;
29712;SDS011;16623;53.632;10.016;2023-08-07T07:24:30;13.63;;;4.25;;
29712;SDS011;16623;53.632;10.016;2023-08-07T07:26:56;8.80;;;3.35;;
29712;SDS011;16623;53.632;10.016;2023-08-07T07:29:21;31.55;;;15.73;;
29712;SDS011;16623;53.632;10.016;2023-08-07T07:31:47;19.92;;;4.28;;
29712;SDS011;16623;53.632;10.016;2023-08-07T07:34:12;17.60;;;3.70;;
29712;SDS011;16623;53.632;10.016;2023-08-07T07:36:37;15.00;;;3.30;;
29712;SDS011;16623;53.632;10.016;2023-08-07T07:39:03;16.02;;;3.28;;
29712;SDS011;16623;53.632;10.016;2023-08-07T07:41:29;14.73;;;4.00;;
29712;SDS011;16623;53.632;10.016;2023-08-07T07:43:54;11.38;;;3.63;;
29712;SDS011;16623;53.632;10.016;2023-08-07T07:46:22;16.58;;;3.58;;
29712;SDS011;16623;53.632;10.016;2023-08-07T07:48:48;17.15;;;3.97;;
29712;SDS011;16623;53.632;10.016;2023-08-07T07:51:14;18.42;;;3.92;;
29712;SDS011;16623;53.632;10.016;2023-08-07T07:53:39;17.52;;;4.50;;
29712;SDS011;16623;53.632;10.016;2023-08-07T07:56:05;18.05;;;3.83;;
29712;SDS011;16623;53.632;10.016;2023-08-07T07:58:30;14.02;;;3.38;;
29712;SDS011;16623;53.632;10.016;2023-08-07T08:00:56;15.90;;;4.88;;
29712;SDS011;16623;53.632;10.016;2023-08-07T08:03:21;12.52;;;3.58;;
29712;SDS011;16623;53.632;10.016;2023-08-07T08:05:49;18.02;;;5.32;;
29712;SDS011;16623;53.632;10.016;2023-08-07T08:08:16;9.45;;;3.35;;
29712;SDS011;16623;53.632;10.016;2023-08-07T08:10:42;15.23;;;3.00;;
29712;SDS011;16623;53.632;10.016;2023-08-07T08:13:08;18.00;;;4.78;;
29712;SDS011;16623;53.632;10.016;2023-08-07T08:15:34;16.70;;;4.32;;
29712;SDS011;16623;53.632;10.016;2023-08-07T08:18:00;10.82;;;4.00;;
29712;SDS011;16623;53.632;10.016;2023-08-07T08:20:26;12.85;;;3.83;;
29712;SDS011;16623;53.632;10.016;2023-08-07T08:22:51;20.25;;;4.07;;
29712;SDS011;16623;53.632;10.016;2023-08-07T08:25:17;18.58;;;4.32;;
29712;SDS011;16623;53.632;10.016;2023-08-07T08:27:42;18.60;;;3.30;;
29712;SDS011;16623;53.632;10.016;2023-08-07T08:30:08;20.98;;;4.70;;
29712;SDS011;16623;53.632;10.016;2023-08-07T08:32:34;16.88;;;4.00;;
29712;SDS011;16623;53.632;10.016;2023-08-07T08:35:00;17.33;;;3.95;;
29712;SDS011;16623;53.632;10.016;2023-08-07T08:37:25;17.70;;;4.53;;
29712;SDS011;16623;53.632;10.016;2023-08-07T08:39:51;13.48;;;3.72;;
29712;SDS011;16623;53.632;10.016;2023-08-07T08:42:16;23.00;;;5.35;;
29712;SDS011;16623;53.632;10.016;2023-08-07T08:44:46;19.55;;;3.92;;
29712;SDS011;16623;53.632;10.016;2023-08-07T08:47:16;20.92;;;4.03;;
29712;SDS011;16623;53.632;10.016;2023-08-07T08:49:46;18.15;;;4.32;;
29712;SDS011;16623;53.632;10.016;2023-08-07T08:52:14;25.48;;;4.18;;
29712;SDS011;16623;53.632;10.016;2023-08-07T08:54:40;16.30;;;4.78;;
29712;SDS011;16623;53.632;10.016;2023-08-07T08:57:06;18.63;;;4.13;;
29712;SDS011;16623;53.632;10.016;2023-08-07T08:59:32;15.13;;;3.97;;
29712;SDS011;16623;53.632;10.016;2023-08-07T09:01:59;19.88;;;5.38;;
29712;SDS011;16623;53.632;10.016;2023-08-07T09:04:24;20.70;;;4.35;;
29712;SDS011;16623;53.632;10.016;2023-08-07T09:06:50;14.90;;;3.88;;
29712;SDS011;16623;53.632;10.016;2023-08-07T09:09:16;15.20;;;5.45;;
29712;SDS011;16623;53.632;10.016;2023-08-07T09:11:44;14.45;;;3.47;;
29712;SDS011;16623;53.632;10.016;2023-08-07T09:14:11;19.55;;;5.03;;
29712;SDS011;16623;53.632;10.016;2023-08-07T09:16:40;19.65;;;4.50;;
29712;SDS011;16623;53.632;10.016;2023-08-07T09:19:06;16.90;;;4.95;;
29712;SDS011;16623;53.632;10.016;2023-08-07T09:21:32;17.52;;;3.63;;
29712;SDS011;16623;53.632;10.016;2023-08-07T09:23:58;14.18;;;4.10;;
29712;SDS011;16623;53.632;10.016;2023-08-07T09:26:23;19.10;;;3.70;;
29712;SDS011;16623;53.632;10.016;2023-08-07T09:28:52;15.57;;;3.00;;
29712;SDS011;16623;53.632;10.016;2023-08-07T09:31:19;11.60;;;2.72;;
29712;SDS011;16623;53.632;10.016;2023-08-07T09:33:49;17.38;;;4.20;;
29712;SDS011;16623;53.632;10.016;2023-08-07T09:36:14;18.80;;;4.20;;
29712;SDS011;16623;53.632;10.016;2023-08-07T09:38:40;15.55;;;3.65;;
29712;SDS011;16623;53.632;10.016;2023-08-07T09:41:06;13.90;;;3.33;;
29712;SDS011;16623;53.632;10.016;2023-08-07T09:43:34;15.35;;;3.75;;
29712;SDS011;16623;53.632;10.016;2023-08-07T09:46:01;13.00;;;3.90;;
29712;SDS011;16623;53.632;10.016;2023-08-07T09:48:28;11.27;;;2.90;;
29712;SDS011;16623;53.632;10.016;2023-08-07T09:50:54;14.75;;;3.25;;
29712;SDS011;16623;53.632;10.016;2023-08-07T09:53:26;9.20;;;2.78;;
29712;SDS011;16623;53.632;10.016;2023-08-07T09:55:52;14.70;;;4.13;;
29712;SDS011;16623;53.632;10.016;2023-08-07T09:58:19;12.82;;;2.70;;
29712;SDS011;16623;53.632;10.016;2023-08-07T10:00:48;11.75;;;3.67;;
29712;SDS011;16623;53.632;10.016;2023-08-07T10:03:14;10.20;;;3.05;;
29712;SDS011;16623;53.632;10.016;2023-08-07T10:05:42;13.95;;;3.63;;
29712;SDS011;16623;53.632;10.016;2023-08-07T10:08:08;18.48;;;3.83;;
29712;SDS011;16623;53.632;10.016;2023-08-07T10:10:35;11.80;;;2.72;;
29712;SDS011;16623;53.632;10.016;2023-08-07T10:13:02;17.92;;;3.90;;
29712;SDS011;16623;53.632;10.016;2023-08-07T10:15:29;13.32;;;3.63;;
29712;SDS011;16623;53.632;10.016;2023-08-07T10:17:55;13.02;;;3.40;;
29712;SDS011;16623;53.632;10.016;2023-08-07T10:20:21;15.82;;;3.13;;
29712;SDS011;16623;53.632;10.016;2023-08-07T10:22:49;18.25;;;4.38;;
29712;SDS011;16623;53.632;10.016;2023-08-07T10:25:16;16.33;;;3.38;;
29712;SDS011;16623;53.632;10.016;2023-08-07T10:27:46;17.58;;;4.68;;
29712;SDS011;16623;53.632;10.016;2023-08-07T10:30:14;9.63;;;2.90;;
29712;SDS011;16623;53.632;10.016;2023-08-07T10:32:43;13.13;;;2.83;;
29712;SDS011;16623;53.632;10.016;2023-08-07T10:35:19;13.40;;;3.15;;
29712;SDS011;16623;53.632;10.016;2023-08-07T10:37:54;7.70;;;3.38;;
29712;SDS011;16623;53.632;10.016;2023-08-07T10:40:19;26.42;;;3.60;;
29712;SDS011;16623;53.632;10.016;2023-08-07T10:43:30;13.23;;;3.53;;
29712;SDS011;16623;53.632;10.016;2023-08-07T10:45:38;10.88;;;2.80;;
29712;SDS011;16623;53.632;10.016;2023-08-07T10:48:11;12.82;;;3.58;;
29712;SDS011;16623;53.632;10.016;2023-08-07T10:50:50;16.30;;;3.97;;
29712;SDS011;16623;53.632;10.016;2023-08-07T10:53:20;7.55;;;3.20;;
29712;SDS011;16623;53.632;10.016;2023-08-07T10:55:53;11.82;;;3.22;;
29712;SDS011;16623;53.632;10.016;2023-08-07T10:58:25;11.63;;;3.28;;
29712;SDS011;16623;53.632;10.016;2023-08-07T11:03:44;16.40;;;3.92;;
29712;SDS011;16623;53.632;10.016;2023-08-07T11:06:13;11.45;;;2.92;;
29712;SDS011;16623;53.632;10.016;2023-08-07T11:08:38;14.48;;;3.00;;
29712;SDS011;16623;53.632;10.016;2023-08-07T11:11:05;10.07;;;3.03;;
29712;SDS011;16623;53.632;10.016;2023-08-07T11:13:31;11.32;;;4.35;;
29712;SDS011;16623;53.632;10.016;2023-08-07T11:15:57;11.10;;;2.80;;
29712;SDS011;16623;53.632;10.016;2023-08-07T11:18:24;18.48;;;3.80;;
29712;SDS011;16623;53.632;10.016;2023-08-07T11:20:51;16.63;;;3.30;;
29712;SDS011;16623;53.632;10.016;2023-08-07T11:23:22;13.90;;;3.17;;
29712;SDS011;16623;53.632;10.016;2023-08-07T11:25:49;12.27;;;3.05;;
29712;SDS011;16623;53.632;10.016;2023-08-07T11:28:17;13.05;;;3.05;;
29712;SDS011;16623;53.632;10.016;2023-08-07T11:30:44;11.63;;;2.78;;
29712;SDS011;16623;53.632;10.016;2023-08-07T11:33:09;12.43;;;2.70;;
29712;SDS011;16623;53.632;10.016;2023-08-07T11:35:40;10.98;;;2.28;;
29712;SDS011;16623;53.632;10.016;2023-08-07T11:38:07;16.48;;;2.70;;
29712;SDS011;16623;53.632;10.016;2023-08-07T11:40:33;10.40;;;2.60;;
29712;SDS011;16623;53.632;10.016;2023-08-07T11:42:59;14.00;;;3.15;;
29712;SDS011;16623;53.632;10.016;2023-08-07T11:45:24;12.73;;;3.10;;
29712;SDS011;16623;53.632;10.016;2023-08-07T11:47:50;16.00;;;2.67;;
29712;SDS011;16623;53.632;10.016;2023-08-07T11:50:16;15.93;;;2.65;;
29712;SDS011;16623;53.632;10.016;2023-08-07T11:52:42;6.90;;;1.95;;
29712;SDS011;16623;53.632;10.016;2023-08-07T11:55:08;8.48;;;2.40;;
29712;SDS011;16623;53.632;10.016;2023-08-07T11:57:34;9.68;;;2.20;;
29712;SDS011;16623;53.632;10.016;2023-08-07T12:00:04;8.23;;;2.58;;
29712;SDS011;16623;53.632;10.016;2023-08-07T12:02:35;9.88;;;2.58;;
29712;SDS011;16623;53.632;10.016;2023-08-07T12:05:00;14.98;;;2.65;;
29712;SDS011;16623;53.632;10.016;2023-08-07T12:07:26;12.18;;;2.75;;
29712;SDS011;16623;53.632;10.016;2023-08-07T12:09:52;13.73;;;2.60;;
29712;SDS011;16623;53.632;10.016;2023-08-07T12:12:20;8.38;;;2.40;;
29712;SDS011;16623;53.632;10.016;2023-08-07T12:14:45;9.10;;;3.30;;
29712;SDS011;16623;53.632;10.016;2023-08-07T12:17:11;9.35;;;2.58;;
29712;SDS011;16623;53.632;10.016;2023-08-07T12:19:37;14.18;;;3.42;;
29712;SDS011;16623;53.632;10.016;2023-08-07T12:22:05;10.38;;;2.70;;
29712;SDS011;16623;53.632;10.016;2023-08-07T12:24:34;10.20;;;2.42;;
29712;SDS011;16623;53.632;10.016;2023-08-07T12:27:01;10.18;;;2.20;;
29712;SDS011;16623;53.632;10.016;2023-08-07T12:29:27;9.00;;;2.60;;
29712;SDS011;16623;53.632;10.016;2023-08-07T12:31:54;10.20;;;2.85;;
29712;SDS011;16623;53.632;10.016;2023-08-07T12:34:20;10.32;;;2.42;;
29712;SDS011;16623;53.632;10.016;2023-08-07T12:36:46;9.00;;;2.53;;
29712;SDS011;16623;53.632;10.016;2023-08-07T12:39:12;11.35;;;3.00;;
29712;SDS011;16623;53.632;10.016;2023-08-07T12:41:37;12.02;;;3.53;;
29712;SDS011;16623;53.632;10.016;2023-08-07T12:44:03;15.68;;;3.42;;
29712;SDS011;16623;53.632;10.016;2023-08-07T12:46:29;12.30;;;3.08;;
29712;SDS011;16623;53.632;10.016;2023-08-07T12:48:54;11.55;;;2.92;;
29712;SDS011;16623;53.632;10.016;2023-08-07T12:51:20;12.85;;;2.72;;
29712;SDS011;16623;53.632;10.016;2023-08-07T12:53:45;12.52;;;2.78;;
29712;SDS011;16623;53.632;10.016;2023-08-07T12:56:12;14.52;;;3.13;;
29712;SDS011;16623;53.632;10.016;2023-08-07T12:58:37;11.73;;;3.03;;
29712;SDS011;16623;53.632;10.016;2023-08-07T13:01:04;9.98;;;2.83;;
29712;SDS011;16623;53.632;10.016;2023-08-07T13:03:29;20.02;;;3.00;;
29712;SDS011;16623;53.632;10.016;2023-08-07T13:05:55;8.35;;;2.20;;
29712;SDS011;16623;53.632;10.016;2023-08-07T13:08:20;12.52;;;2.33;;
29712;SDS011;16623;53.632;10.016;2023-08-07T13:10:46;9.43;;;2.08;;
29712;SDS011;16623;53.632;10.016;2023-08-07T13:13:11;7.20;;;2.10;;
29712;SDS011;16623;53.632;10.016;2023-08-07T13:15:37;11.57;;;2.53;;
29712;SDS011;16623;53.632;10.016;2023-08-07T13:18:02;11.35;;;2.88;;
29712;SDS011;16623;53.632;10.016;2023-08-07T13:20:28;12.70;;;3.20;;
29712;SDS011;16623;53.632;10.016;2023-08-07T13:22:58;14.15;;;2.78;;
29712;SDS011;16623;53.632;10.016;2023-08-07T13:25:23;12.02;;;3.05;;
29712;SDS011;16623;53.632;10.016;2023-08-07T13:27:49;12.20;;;3.03;;
29712;SDS011;16623;53.632;10.016;2023-08-07T13:30:14;14.18;;;2.90;;
29712;SDS011;16623;53.632;10.016;2023-08-07T13:32:40;12.60;;;3.20;;
29712;SDS011;16623;53.632;10.016;2023-08-07T13:35:06;6.63;;;2.53;;
29712;SDS011;16623;53.632;10.016;2023-08-07T13:37:32;14.40;;;3.40;;
29712;SDS011;16623;53.632;10.016;2023-08-07T13:39:58;17.13;;;3.95;;
29712;SDS011;16623;53.632;10.016;2023-08-07T13:42:24;9.13;;;3.83;;
29712;SDS011;16623;53.632;10.016;2023-08-07T13:44:51;20.27;;;3.55;;
29712;SDS011;16623;53.632;10.016;2023-08-07T13:47:17;19.10;;;4.13;;
29712;SDS011;16623;53.632;10.016;2023-08-07T13:49:42;17.48;;;4.40;;
29712;SDS011;16623;53.632;10.016;2023-08-07T13:52:08;7.43;;;3.35;;
29712;SDS011;16623;53.632;10.016;2023-08-07T13:54:34;16.48;;;3.70;;
29712;SDS011;16623;53.632;10.016;2023-08-07T13:56:59;17.85;;;3.50;;
29712;SDS011;16623;53.632;10.016;2023-08-07T13:59:25;13.68;;;3.70;;
29712;SDS011;16623;53.632;10.016;2023-08-07T14:01:50;11.15;;;3.30;;
29712;SDS011;16623;53.632;10.016;2023-08-07T14:04:17;15.38;;;3.83;;
29712;SDS011;16623;53.632;10.016;2023-08-07T14:06:42;15.18;;;3.53;;
29712;SDS011;16623;53.632;10.016;2023-08-07T14:09:09;13.35;;;3.05;;
29712;SDS011;16623;53.632;10.016;2023-08-07T14:11:35;18.23;;;3.38;;
29712;SDS011;16623;53.632;10.016;2023-08-07T14:14:01;17.88;;;3.78;;
29712;SDS011;16623;53.632;10.016;2023-08-07T14:16:27;21.42;;;3.70;;
29712;SDS011;16623;53.632;10.016;2023-08-07T14:18:52;13.27;;;3.17;;
29712;SDS011;16623;53.632;10.016;2023-08-07T14:21:18;13.93;;;3.05;;
29712;SDS011;16623;53.632;10.016;2023-08-07T14:23:44;14.48;;;3.95;;
29712;SDS011;16623;53.632;10.016;2023-08-07T14:26:10;15.55;;;4.10;;